createdAt,value
2019-04-29T00:00:12.228Z,99.99
2019-04-29T00:01:12.293Z,99.99
2019-04-29T00:02:12.194Z,99.88
2019-04-29T00:03:12.265Z,99.77
2019-04-29T00:04:12.175Z,99.88
2019-04-29T00:05:12.265Z,99.77
2019-04-29T00:06:12.148Z,99.99
2019-04-29T00:07:12.196Z,99.99
2019-04-29T00:08:12.167Z,99.99
2019-04-29T00:09:12.137Z,99.77
2019-04-29T00:10:12.101Z,99.77
2019-04-29T00:11:12.169Z,99.72
2019-04-29T00:12:12.090Z,99.72
2019-04-29T00:13:12.080Z,99.93
2019-04-29T00:14:12.069Z,99.99
2019-04-29T00:15:12.139Z,99.99
2019-04-29T00:16:12.041Z,99.99
2019-04-29T00:17:12.082Z,99.93
2019-04-29T00:18:12.012Z,99.82
2019-04-29T00:19:12.016Z,99.99
2019-04-29T00:20:11.992Z,99.82
2019-04-29T00:21:12.065Z,99.99
2019-04-29T00:22:11.963Z,99.99
2019-04-29T00:23:11.984Z,99.99
2019-04-29T00:24:11.965Z,99.76
2019-04-29T00:25:12.945Z,99.99
2019-04-29T00:26:11.916Z,99.99
2019-04-29T00:27:11.956Z,99.99
2019-04-29T00:28:11.908Z,99.99
2019-04-29T00:29:11.936Z,99.98
2019-04-29T00:30:11.866Z,99.98
2019-04-29T00:31:12.958Z,99.99
2019-04-29T00:32:11.862Z,99.87
2019-04-29T00:33:11.859Z,99.99
2019-04-29T00:34:11.839Z,99.99
2019-04-29T00:35:11.830Z,99.99
2019-04-29T00:36:11.810Z,99.99
2019-04-29T00:37:12.861Z,99.99
2019-04-29T00:38:11.781Z,99.99
2019-04-29T00:39:11.831Z,99.98
2019-04-29T00:40:11.772Z,99.98
2019-04-29T00:41:13.851Z,99.99
2019-04-29T00:42:11.732Z,99.99
2019-04-29T00:43:11.752Z,99.99
2019-04-29T00:44:11.733Z,99.81
2019-04-29T00:45:11.783Z,99.99
2019-04-29T00:46:11.694Z,99.98
2019-04-29T00:47:11.724Z,99.99
2019-04-29T00:48:11.654Z,99.99
2019-04-29T00:49:11.695Z,99.99
2019-04-29T00:50:11.645Z,99.99
2019-04-29T00:51:11.645Z,99.99
2019-04-29T00:52:11.626Z,99.99
2019-04-29T00:53:11.628Z,99.99
2019-04-29T00:54:12.344Z,99.98
2019-04-29T00:55:11.668Z,99.99
2019-04-29T00:56:11.579Z,99.99
2019-04-29T00:57:11.569Z,99.98
2019-04-29T00:58:11.569Z,99.87
2019-04-29T00:59:11.550Z,99.99
2019-04-29T01:00:11.640Z,99.87
2019-04-29T01:01:11.521Z,99.99
2019-04-29T01:02:11.522Z,99.99
2019-04-29T01:03:11.512Z,99.98
2019-04-29T01:04:11.585Z,99.99
2019-04-29T01:05:11.494Z,99.99
2019-04-29T01:06:11.513Z,99.99
2019-04-29T01:07:11.464Z,99.99
2019-04-29T01:08:11.555Z,99.87
2019-04-29T01:09:11.430Z,99.99
2019-04-29T01:10:11.545Z,99.99
2019-04-29T01:11:11.405Z,99.99
2019-04-29T01:12:11.429Z,99.99
2019-04-29T01:13:11.496Z,99.99
2019-04-29T01:14:11.387Z,99.99
2019-04-29T01:15:12.398Z,99.99
2019-04-29T01:16:11.358Z,99.99
2019-04-29T01:17:12.388Z,99.99
2019-04-29T01:18:12.358Z,99.99
2019-04-29T01:19:11.319Z,99.99
2019-04-29T01:20:11.409Z,99.99
2019-04-29T01:21:11.289Z,99.99
2019-04-29T01:22:11.310Z,99.99
2019-04-29T01:23:11.270Z,99.99
2019-04-29T01:24:11.262Z,99.99
2019-04-29T01:25:11.351Z,99.99
2019-04-29T01:26:11.242Z,99.91
2019-04-29T01:27:11.243Z,99.91
2019-04-29T01:28:11.213Z,99.99
2019-04-29T01:29:11.204Z,99.99
2019-04-29T01:30:11.215Z,99.99
2019-04-29T01:31:11.215Z,99.99
2019-04-29T01:32:11.164Z,99.99
2019-04-29T01:33:11.255Z,99.99
2019-04-29T01:34:11.156Z,99.99
2019-04-29T01:35:11.226Z,99.99
2019-04-29T01:36:11.126Z,99.91
2019-04-29T01:37:11.226Z,99.99
2019-04-29T01:38:11.107Z,99.99
2019-04-29T01:39:11.158Z,99.99
2019-04-29T01:40:11.088Z,99.99
2019-04-29T01:41:11.098Z,99.96
2019-04-29T01:42:11.070Z,99.99
2019-04-29T01:43:11.131Z,99.99
2019-04-29T01:44:11.031Z,99.99
2019-04-29T01:45:11.040Z,99.99
2019-04-29T01:46:11.023Z,99.99
2019-04-29T01:47:11.101Z,99.96
2019-04-29T01:48:10.983Z,99.99
2019-04-29T01:49:11.043Z,99.99
2019-04-29T01:50:10.993Z,99.99
2019-04-29T01:51:10.953Z,99.99
2019-04-29T01:52:10.944Z,99.99
2019-04-29T01:53:11.019Z,99.99
2019-04-29T01:54:10.914Z,99.99
2019-04-29T01:55:10.944Z,99.99
2019-04-29T01:56:10.955Z,99.99
2019-04-29T01:57:10.896Z,99.99
2019-04-29T01:58:10.948Z,99.99
2019-04-29T01:59:10.856Z,99.96
2019-04-29T02:00:12.345Z,99.99
2019-04-29T02:01:10.858Z,99.99
2019-04-29T02:02:11.848Z,99.99
2019-04-29T02:03:10.819Z,99.99
2019-04-29T02:04:10.859Z,99.99
2019-04-29T02:05:10.801Z,99.99
2019-04-29T02:06:10.902Z,99.99
2019-04-29T02:07:10.771Z,99.99
2019-04-29T02:08:11.861Z,99.99
2019-04-29T02:09:10.762Z,99.99
2019-04-29T02:10:10.763Z,99.99
2019-04-29T02:11:10.743Z,99.99
2019-04-29T02:12:10.724Z,99.99
2019-04-29T02:13:10.713Z,99.99
2019-04-29T02:14:10.733Z,99.99
2019-04-29T02:15:10.704Z,99.99
2019-04-29T02:16:10.724Z,99.99
2019-04-29T02:17:10.665Z,99.99
2019-04-29T02:18:10.647Z,99.99
2019-04-29T02:19:10.683Z,99.99
2019-04-29T02:20:10.636Z,99.99
2019-04-29T02:21:10.715Z,99.99
2019-04-29T02:22:10.597Z,99.99
2019-04-29T02:23:10.589Z,99.99
2019-04-29T02:24:10.588Z,99.99
2019-04-29T02:25:10.688Z,99.99
2019-04-29T02:26:10.570Z,99.99
2019-04-29T02:27:10.620Z,99.99
2019-04-29T02:28:10.541Z,99.99
2019-04-29T02:29:10.522Z,99.99
2019-04-29T02:30:10.624Z,99.99
2019-04-29T02:31:10.512Z,99.99
2019-04-29T02:32:10.625Z,99.99
2019-04-29T02:33:10.474Z,99.96
2019-04-29T02:34:10.473Z,99.99
2019-04-29T02:35:10.454Z,99.99
2019-04-29T02:36:10.544Z,99.99
2019-04-29T02:37:10.444Z,99.99
2019-04-29T02:38:10.464Z,99.99
2019-04-29T02:39:10.417Z,99.99
2019-04-29T02:40:10.407Z,99.99
2019-04-29T02:41:10.481Z,99.99
2019-04-29T02:42:10.387Z,99.99
2019-04-29T02:43:10.407Z,99.99
2019-04-29T02:44:10.359Z,99.99
2019-04-29T02:45:10.337Z,99.99
2019-04-29T02:46:10.328Z,99.75
2019-04-29T02:47:10.440Z,99.99
2019-04-29T02:48:10.320Z,99.85
2019-04-29T02:49:10.319Z,99.75
2019-04-29T02:50:10.281Z,99.75
2019-04-29T02:51:10.361Z,99.75
2019-04-29T02:52:10.283Z,99.75
2019-04-29T02:53:10.281Z,99.75
2019-04-29T02:54:10.241Z,99.65
2019-04-29T02:55:10.331Z,99.85
2019-04-29T02:56:10.231Z,99.54
2019-04-29T02:57:10.317Z,99.99
2019-04-29T02:58:12.493Z,99.99
2019-04-29T02:59:10.311Z,99.96
2019-04-29T03:00:10.175Z,99.99
2019-04-29T03:01:10.155Z,99.75
2019-04-29T03:02:10.167Z,99.85
2019-04-29T03:03:10.176Z,99.99
2019-04-29T03:04:10.126Z,99.81
2019-04-29T03:05:10.206Z,99.75
2019-04-29T03:06:10.099Z,99.75
2019-04-29T03:07:10.119Z,99.99
2019-04-29T03:08:10.118Z,99.54
2019-04-29T03:09:10.067Z,99.33
2019-04-29T03:10:11.169Z,99.54
2019-04-29T03:11:10.050Z,99.33
2019-04-29T03:12:10.072Z,99.65
2019-04-29T03:13:10.029Z,99.99
2019-04-29T03:14:10.123Z,99.33
2019-04-29T03:15:10.011Z,99.75
2019-04-29T03:16:10.063Z,99.65
2019-04-29T03:17:09.971Z,99.44
2019-04-29T03:18:09.982Z,99.13
2019-04-29T03:19:10.069Z,99.54
2019-04-29T03:20:09.943Z,99.75
2019-04-29T03:21:09.994Z,99.54
2019-04-29T03:22:09.915Z,99.54
2019-04-29T03:23:09.934Z,99.65
2019-04-29T03:24:09.906Z,99.65
2019-04-29T03:25:09.967Z,99.65
2019-04-29T03:26:09.887Z,99.44
2019-04-29T03:27:09.904Z,99.33
2019-04-29T03:28:09.866Z,99.23
2019-04-29T03:29:10.857Z,99.23
2019-04-29T03:30:09.864Z,99.44
2019-04-29T03:31:09.888Z,99.23
2019-04-29T03:32:09.808Z,99.80
2019-04-29T03:33:09.856Z,99.23
2019-04-29T03:34:09.796Z,99.75
2019-04-29T03:35:09.850Z,99.27
2019-04-29T03:36:09.762Z,99.85
2019-04-29T03:37:09.781Z,99.85
2019-04-29T03:38:09.760Z,99.44
2019-04-29T03:39:09.741Z,99.23
2019-04-29T03:40:09.712Z,99.27
2019-04-29T03:41:11.803Z,99.23
2019-04-29T03:42:09.704Z,99.85
2019-04-29T03:43:09.745Z,99.99
2019-04-29T03:44:09.663Z,99.99
2019-04-29T03:45:09.655Z,99.69
2019-04-29T03:46:09.656Z,99.54
2019-04-29T03:47:09.655Z,99.75
2019-04-29T03:48:09.635Z,99.27
2019-04-29T03:49:09.697Z,99.23
2019-04-29T03:50:09.667Z,99.59
2019-04-29T03:51:09.586Z,99.33
2019-04-29T03:52:09.597Z,99.69
2019-04-29T03:53:09.587Z,99.99
2019-04-29T03:54:09.640Z,99.90
2019-04-29T03:55:09.539Z,99.96
2019-04-29T03:56:09.529Z,99.75
2019-04-29T03:57:09.534Z,99.99
2019-04-29T03:58:09.573Z,99.99
2019-04-29T03:59:09.570Z,99.33
2019-04-29T04:00:09.492Z,99.69
2019-04-29T04:01:09.481Z,99.17
2019-04-29T04:02:09.471Z,99.54
2019-04-29T04:03:09.542Z,99.54
2019-04-29T04:04:09.453Z,99.99
2019-04-29T04:05:09.482Z,99.99
2019-04-29T04:06:09.424Z,99.99
2019-04-29T04:07:09.408Z,99.91
2019-04-29T04:08:09.485Z,99.29
2019-04-29T04:09:09.396Z,99.54
2019-04-29T04:10:09.447Z,99.23
2019-04-29T04:11:09.369Z,99.85
2019-04-29T04:12:09.350Z,99.65
2019-04-29T04:13:09.348Z,99.54
2019-04-29T04:14:09.438Z,99.50
2019-04-29T04:15:09.356Z,99.40
2019-04-29T04:16:09.338Z,99.08
2019-04-29T04:17:09.299Z,99.02
2019-04-29T04:18:09.289Z,98.77
2019-04-29T04:19:09.379Z,99.08
2019-04-29T04:20:09.284Z,98.77
2019-04-29T04:21:09.297Z,99.18
2019-04-29T04:22:09.230Z,99.18
2019-04-29T04:23:09.231Z,99.29
2019-04-29T04:24:09.231Z,98.97
2019-04-29T04:25:09.252Z,98.87
2019-04-29T04:26:09.192Z,98.97
2019-04-29T04:27:10.202Z,98.97
2019-04-29T04:28:09.177Z,98.72
2019-04-29T04:29:09.266Z,98.66
2019-04-29T04:30:09.143Z,98.56
2019-04-29T04:31:09.259Z,98.41
2019-04-29T04:32:09.125Z,98.62
2019-04-29T04:33:09.197Z,98.62
2019-04-29T04:34:09.117Z,97.99
2019-04-29T04:35:10.145Z,98.31
2019-04-29T04:36:09.076Z,97.99
2019-04-29T04:37:09.166Z,98.10
2019-04-29T04:38:09.048Z,98.20
2019-04-29T04:39:09.056Z,97.78
2019-04-29T04:40:09.071Z,97.68
2019-04-29T04:41:09.030Z,97.85
2019-04-29T04:42:09.103Z,97.74
2019-04-29T04:43:08.994Z,98.16
2019-04-29T04:44:09.070Z,97.85
2019-04-29T04:45:08.994Z,97.64
2019-04-29T04:46:09.071Z,97.74
2019-04-29T04:47:08.941Z,97.64
2019-04-29T04:48:09.012Z,97.74
2019-04-29T04:49:09.021Z,97.85
2019-04-29T04:50:08.903Z,97.74
2019-04-29T04:51:09.035Z,97.33
2019-04-29T04:52:08.904Z,97.53
2019-04-29T04:53:08.943Z,97.59
2019-04-29T04:54:08.884Z,97.17
2019-04-29T04:55:08.854Z,97.28
2019-04-29T04:56:08.855Z,97.07
2019-04-29T04:57:08.915Z,97.17
2019-04-29T04:58:08.829Z,97.07
2019-04-29T04:59:09.006Z,97.24
2019-04-29T05:00:08.807Z,97.65
2019-04-29T05:01:08.787Z,96.51
2019-04-29T05:02:08.857Z,96.20
2019-04-29T05:03:08.768Z,96.41
2019-04-29T05:04:08.798Z,95.94
2019-04-29T05:05:08.759Z,95.73
2019-04-29T05:06:08.731Z,95.63
2019-04-29T05:07:08.720Z,95.63
2019-04-29T05:08:08.770Z,95.69
2019-04-29T05:09:08.690Z,95.48
2019-04-29T05:10:09.771Z,95.07
2019-04-29T05:11:08.684Z,94.76
2019-04-29T05:12:08.672Z,94.45
2019-04-29T05:13:08.702Z,94.76
2019-04-29T05:14:08.634Z,94.86
2019-04-29T05:15:08.683Z,94.45
2019-04-29T05:16:08.624Z,94.71
2019-04-29T05:17:08.603Z,94.30
2019-04-29T05:18:08.645Z,94.51
2019-04-29T05:19:08.595Z,94.30
2019-04-29T05:20:08.635Z,94.26
2019-04-29T05:21:08.555Z,93.95
2019-04-29T05:22:08.556Z,94.05
2019-04-29T05:23:08.546Z,93.95
2019-04-29T05:24:08.557Z,93.84
2019-04-29T05:25:08.527Z,93.32
2019-04-29T05:26:08.592Z,93.38
2019-04-29T05:27:08.499Z,93.12
2019-04-29T05:28:08.490Z,92.49
2019-04-29T05:29:08.470Z,93.59
2019-04-29T05:30:09.530Z,93.70
2019-04-29T05:31:08.451Z,92.66
2019-04-29T05:32:08.500Z,92.86
2019-04-29T05:33:08.460Z,92.82
2019-04-29T05:34:08.412Z,92.45
2019-04-29T05:35:08.453Z,92.55
2019-04-29T05:36:08.382Z,92.61
2019-04-29T05:37:08.433Z,92.41
2019-04-29T05:38:08.367Z,91.78
2019-04-29T05:39:08.374Z,91.95
2019-04-29T05:40:08.354Z,90.95
2019-04-29T05:41:08.406Z,91.33
2019-04-29T05:42:15.818Z,91.12
2019-04-29T05:43:09.315Z,90.87
2019-04-29T05:44:08.315Z,91.39
2019-04-29T05:45:08.296Z,91.03
2019-04-29T05:46:08.347Z,91.14
2019-04-29T05:47:08.267Z,90.68
2019-04-29T05:48:08.277Z,90.68
2019-04-29T05:49:08.994Z,90.37
2019-04-29T05:50:11.972Z,89.19
2019-04-29T05:51:09.219Z,89.46
2019-04-29T05:52:08.249Z,88.53
2019-04-29T05:53:11.563Z,88.12
2019-04-29T05:54:09.223Z,87.70
2019-04-29T05:55:09.541Z,87.81
2019-04-29T05:56:09.251Z,87.97
2019-04-29T05:57:08.150Z,87.87
2019-04-29T05:58:08.172Z,87.76
2019-04-29T05:59:08.441Z,88.18
2019-04-29T06:00:08.153Z,87.91
2019-04-29T06:01:08.163Z,87.39
2019-04-29T06:02:08.101Z,87.49
2019-04-29T06:03:08.095Z,87.91
2019-04-29T06:04:11.720Z,88.22
2019-04-29T06:05:09.065Z,87.91
2019-04-29T06:06:08.066Z,87.97
2019-04-29T06:07:08.067Z,88.18
2019-04-29T06:08:08.016Z,87.87
2019-04-29T06:09:11.763Z,87.87
2019-04-29T06:10:09.007Z,88.80
2019-04-29T06:11:08.009Z,88.49
2019-04-29T06:12:08.008Z,88.49
2019-04-29T06:13:07.968Z,88.39
2019-04-29T06:14:08.059Z,88.80
2019-04-29T06:15:07.940Z,88.49
2019-04-29T06:16:07.939Z,88.90
2019-04-29T06:17:07.937Z,88.59
2019-04-29T06:18:07.921Z,88.49
2019-04-29T06:19:07.890Z,88.28
2019-04-29T06:20:07.959Z,88.24
2019-04-29T06:21:09.565Z,87.97
2019-04-29T06:22:07.975Z,87.97
2019-04-29T06:23:07.864Z,87.93
2019-04-29T06:24:07.933Z,87.73
2019-04-29T06:25:07.829Z,87.62
2019-04-29T06:26:07.915Z,87.46
2019-04-29T06:27:07.797Z,87.41
2019-04-29T06:28:07.796Z,87.83
2019-04-29T06:29:07.786Z,87.62
2019-04-29T06:30:07.845Z,87.10
2019-04-29T06:31:07.986Z,87.73
2019-04-29T06:32:07.739Z,88.24
2019-04-29T06:33:07.738Z,88.10
2019-04-29T06:34:07.818Z,87.89
2019-04-29T06:35:10.534Z,87.79
2019-04-29T06:36:08.819Z,87.68
2019-04-29T06:37:07.719Z,87.02
2019-04-29T06:38:07.679Z,85.93
2019-04-29T06:39:07.751Z,85.41
2019-04-29T06:40:07.651Z,85.62
2019-04-29T06:41:09.723Z,85.83
2019-04-29T06:42:07.633Z,86.76
2019-04-29T06:43:07.722Z,86.41
2019-04-29T06:44:15.794Z,85.99
2019-04-29T06:45:08.602Z,86.61
2019-04-29T06:46:07.663Z,86.51
2019-04-29T06:47:07.563Z,86.61
2019-04-29T06:48:07.555Z,86.68
2019-04-29T06:49:10.329Z,86.47
2019-04-29T06:50:07.556Z,86.57
2019-04-29T06:51:07.606Z,85.54
2019-04-29T06:52:07.506Z,83.99
2019-04-29T06:53:07.507Z,82.92
2019-04-29T06:54:07.532Z,83.85
2019-04-29T06:55:07.538Z,84.36
2019-04-29T06:56:09.121Z,82.98
2019-04-29T06:57:07.478Z,83.91
2019-04-29T06:58:07.549Z,83.61
2019-04-29T06:59:11.727Z,83.67
2019-04-29T07:00:07.481Z,83.56
2019-04-29T07:01:07.430Z,82.29
2019-04-29T07:02:09.494Z,81.67
2019-04-29T07:03:08.380Z,82.05
2019-04-29T07:04:07.452Z,81.12
2019-04-29T07:05:07.373Z,80.91
2019-04-29T07:06:08.452Z,80.77
2019-04-29T07:07:07.332Z,80.33
2019-04-29T07:08:07.423Z,80.60
2019-04-29T07:09:07.351Z,79.12
2019-04-29T07:10:07.364Z,77.13
2019-04-29T07:11:07.329Z,77.75
2019-04-29T07:12:08.237Z,76.68
2019-04-29T07:13:07.275Z,77.00
2019-04-29T07:14:07.256Z,76.58
2019-04-29T07:15:07.699Z,75.76
2019-04-29T07:16:07.267Z,76.68
2019-04-29T07:17:07.328Z,76.55
2019-04-29T07:18:07.298Z,76.55
2019-04-29T07:19:07.188Z,75.62
2019-04-29T07:20:07.248Z,75.52
2019-04-29T07:21:07.466Z,75.52
2019-04-29T07:22:07.219Z,75.93
2019-04-29T07:23:07.141Z,75.87
2019-04-29T07:24:07.210Z,76.68
2019-04-29T07:25:07.121Z,76.58
2019-04-29T07:26:07.171Z,76.65
2019-04-29T07:27:07.132Z,76.14
2019-04-29T07:28:07.202Z,76.79
2019-04-29T07:29:07.082Z,77.20
2019-04-29T07:30:08.363Z,77.40
2019-04-29T07:31:09.997Z,77.55
2019-04-29T07:32:09.264Z,78.43
2019-04-29T07:33:07.036Z,79.05
2019-04-29T07:34:08.487Z,78.39
2019-04-29T07:35:09.855Z,78.70
2019-04-29T07:36:11.214Z,77.47
2019-04-29T07:37:07.026Z,77.54
2019-04-29T07:38:08.567Z,77.09
2019-04-29T07:39:07.030Z,76.78
2019-04-29T07:40:07.976Z,76.99
2019-04-29T07:41:09.899Z,76.78
2019-04-29T07:42:06.949Z,77.20
2019-04-29T07:43:07.869Z,77.09
2019-04-29T07:44:06.910Z,77.61
2019-04-29T07:45:07.962Z,77.20
2019-04-29T07:46:06.891Z,77.09
2019-04-29T07:47:06.922Z,76.89
2019-04-29T07:48:07.745Z,77.40
2019-04-29T07:49:06.852Z,77.33
2019-04-29T07:50:06.904Z,77.40
2019-04-29T07:51:06.843Z,78.63
2019-04-29T07:52:09.883Z,78.94
2019-04-29T07:53:07.823Z,79.38
2019-04-29T07:54:11.160Z,79.52
2019-04-29T07:55:07.796Z,79.59
2019-04-29T07:56:08.220Z,79.63
2019-04-29T07:57:06.766Z,80.55
2019-04-29T07:58:06.866Z,80.72
2019-04-29T07:59:06.747Z,81.02
2019-04-29T08:00:08.547Z,80.41
2019-04-29T08:01:07.720Z,80.62
2019-04-29T08:02:06.798Z,80.62
2019-04-29T08:03:06.809Z,81.64
2019-04-29T08:04:06.681Z,81.85
2019-04-29T08:05:06.717Z,81.09
2019-04-29T08:06:06.670Z,81.85
2019-04-29T08:07:06.740Z,81.54
2019-04-29T08:08:07.780Z,81.71
2019-04-29T08:09:08.044Z,81.81
2019-04-29T08:10:22.518Z,81.81
2019-04-29T08:11:07.612Z,81.36
2019-04-29T08:12:06.671Z,81.15
2019-04-29T08:13:06.581Z,80.44
2019-04-29T08:14:06.576Z,81.36
2019-04-29T08:15:07.713Z,80.71
2019-04-29T08:16:06.545Z,80.51
2019-04-29T08:17:06.617Z,80.71
2019-04-29T08:18:10.968Z,80.40
2019-04-29T08:19:06.506Z,80.40
2019-04-29T08:20:06.525Z,81.84
2019-04-29T08:21:06.588Z,80.60
2019-04-29T08:22:06.470Z,80.03
2019-04-29T08:23:06.568Z,80.40
2019-04-29T08:24:06.452Z,80.95
2019-04-29T08:25:06.463Z,80.51
2019-04-29T08:26:06.440Z,81.22
2019-04-29T08:27:06.490Z,81.46
2019-04-29T08:28:06.423Z,81.67
2019-04-29T08:29:06.430Z,81.77
2019-04-29T08:30:06.688Z,81.57
2019-04-29T08:31:06.464Z,82.28
2019-04-29T08:32:06.362Z,81.73
2019-04-29T08:33:07.534Z,81.63
2019-04-29T08:34:07.344Z,81.43
2019-04-29T08:35:06.323Z,81.52
2019-04-29T08:36:06.324Z,81.59
2019-04-29T08:37:06.375Z,81.22
2019-04-29T08:38:06.314Z,82.76
2019-04-29T08:39:08.641Z,83.03
2019-04-29T08:40:15.967Z,82.92
2019-04-29T08:41:07.266Z,82.07
2019-04-29T08:42:09.091Z,81.86
2019-04-29T08:43:06.268Z,80.94
2019-04-29T08:44:15.989Z,80.33
2019-04-29T08:45:07.220Z,80.33
2019-04-29T08:46:06.199Z,79.91
2019-04-29T08:47:06.189Z,79.71
2019-04-29T08:48:07.251Z,80.43
2019-04-29T08:49:07.734Z,80.43
2019-04-29T08:50:06.261Z,79.57
2019-04-29T08:51:06.141Z,76.81
2019-04-29T08:52:06.145Z,77.22
2019-04-29T08:53:06.162Z,77.73
2019-04-29T08:54:06.125Z,76.50
2019-04-29T08:55:06.203Z,75.17
2019-04-29T08:56:10.328Z,72.21
2019-04-29T08:57:07.085Z,71.08
2019-04-29T08:58:06.922Z,71.39
2019-04-29T08:59:06.116Z,72.38
2019-04-29T09:00:06.056Z,73.71
2019-04-29T09:01:07.136Z,73.94
2019-04-29T09:02:10.283Z,72.41
2019-04-29T09:03:07.067Z,72.52
2019-04-29T09:04:06.017Z,73.98
2019-04-29T09:05:06.770Z,73.33
2019-04-29T09:06:06.222Z,71.73
2019-04-29T09:07:12.753Z,73.47
2019-04-29T09:08:07.024Z,73.54
2019-04-29T09:09:09.178Z,71.32
2019-04-29T09:10:06.931Z,72.00
2019-04-29T09:11:08.284Z,72.92
2019-04-29T09:12:06.911Z,72.96
2019-04-29T09:13:05.922Z,74.80
2019-04-29T09:14:05.923Z,72.14
2019-04-29T09:15:05.873Z,74.08
2019-04-29T09:16:05.933Z,73.74
2019-04-29T09:17:19.573Z,73.74
2019-04-29T09:18:06.834Z,73.64
2019-04-29T09:19:05.844Z,72.72
2019-04-29T09:20:05.825Z,72.62
2019-04-29T09:21:05.870Z,71.70
2019-04-29T09:22:05.800Z,72.41
2019-04-29T09:23:08.151Z,72.62
2019-04-29T09:24:05.797Z,72.75
2019-04-29T09:25:05.757Z,74.90
2019-04-29T09:26:05.748Z,76.64
2019-04-29T09:27:09.674Z,74.90
2019-04-29T09:28:05.703Z,73.81
2019-04-29T09:29:05.753Z,76.37
2019-04-29T09:30:05.699Z,74.87
2019-04-29T09:31:05.750Z,75.18
2019-04-29T09:32:05.691Z,78.66
2019-04-29T09:33:08.745Z,79.27
2019-04-29T09:34:07.079Z,78.05
2019-04-29T09:35:05.722Z,77.23
2019-04-29T09:36:09.634Z,78.86
2019-04-29T09:37:06.623Z,79.58
2019-04-29T09:38:05.626Z,79.31
2019-04-29T09:39:05.614Z,79.21
2019-04-29T09:40:06.625Z,78.28
2019-04-29T09:41:05.575Z,77.98
2019-04-29T09:42:08.126Z,76.85
2019-04-29T09:43:15.213Z,77.77
2019-04-29T09:44:06.546Z,76.54
2019-04-29T09:45:05.637Z,77.16
2019-04-29T09:46:05.528Z,76.34
2019-04-29T09:47:08.473Z,76.54
2019-04-29T09:48:05.498Z,76.65
2019-04-29T09:49:05.569Z,75.31
2019-04-29T09:50:05.502Z,77.02
2019-04-29T09:51:16.659Z,76.51
2019-04-29T09:52:06.450Z,76.47
2019-04-29T09:53:05.442Z,77.50
2019-04-29T09:54:05.431Z,75.35
2019-04-29T09:55:07.461Z,76.68
2019-04-29T09:56:05.402Z,76.47
2019-04-29T09:57:05.412Z,77.70
2019-04-29T09:58:05.394Z,75.55
2019-04-29T09:59:05.385Z,77.70
2019-04-29T10:00:07.025Z,77.73
2019-04-29T10:01:05.348Z,79.07
2019-04-29T10:02:05.355Z,79.89
2019-04-29T10:03:05.326Z,79.48
2019-04-29T10:04:05.319Z,78.49
2019-04-29T10:05:05.327Z,80.64
2019-04-29T10:06:05.330Z,82.14
2019-04-29T10:07:05.287Z,80.40
2019-04-29T10:08:05.368Z,79.41
2019-04-29T10:09:05.259Z,79.41
2019-04-29T10:10:06.809Z,80.33
2019-04-29T10:11:05.259Z,83.00
2019-04-29T10:12:05.200Z,84.84
2019-04-29T10:13:05.309Z,80.74
2019-04-29T10:14:05.202Z,79.52
2019-04-29T10:15:05.274Z,80.54
2019-04-29T10:16:05.173Z,81.77
2019-04-29T10:17:05.282Z,84.53
2019-04-29T10:18:05.163Z,85.56
2019-04-29T10:19:05.628Z,85.36
2019-04-29T10:20:07.905Z,84.44
2019-04-29T10:21:05.136Z,82.53
2019-04-29T10:22:05.214Z,83.61
2019-04-29T10:23:05.096Z,83.65
2019-04-29T10:24:05.161Z,84.68
2019-04-29T10:25:05.098Z,82.93
2019-04-29T10:26:05.127Z,83.14
2019-04-29T10:27:07.198Z,84.06
2019-04-29T10:28:05.128Z,85.50
2019-04-29T10:29:05.038Z,84.99
2019-04-29T10:30:05.059Z,85.60
2019-04-29T10:31:05.020Z,85.36
2019-04-29T10:32:06.808Z,85.87
2019-04-29T10:33:04.994Z,86.18
2019-04-29T10:34:05.031Z,86.18
2019-04-29T10:35:08.914Z,87.41
2019-04-29T10:36:06.044Z,87.41
2019-04-29T10:37:04.942Z,86.99
2019-04-29T10:38:05.005Z,87.41
2019-04-29T10:39:04.915Z,87.51
2019-04-29T10:40:11.303Z,87.82
2019-04-29T10:41:05.913Z,87.71
2019-04-29T10:42:04.974Z,87.71
2019-04-29T10:43:04.869Z,87.51
2019-04-29T10:44:04.916Z,87.41
2019-04-29T10:45:04.845Z,87.71
2019-04-29T10:46:04.886Z,86.90
2019-04-29T10:47:04.827Z,87.77
2019-04-29T10:48:04.890Z,87.41
2019-04-29T10:49:05.321Z,87.26
2019-04-29T10:50:04.838Z,87.51
2019-04-29T10:51:04.799Z,87.51
2019-04-29T10:52:04.859Z,87.61
2019-04-29T10:53:04.759Z,87.30
2019-04-29T10:54:04.740Z,87.30
2019-04-29T10:55:04.760Z,87.30
2019-04-29T10:56:05.769Z,86.96
2019-04-29T10:57:04.792Z,85.66
2019-04-29T10:58:04.703Z,85.05
2019-04-29T10:59:09.262Z,85.52
2019-04-29T11:00:05.672Z,85.01
2019-04-29T11:01:04.813Z,85.22
2019-04-29T11:02:09.313Z,85.01
2019-04-29T11:03:05.656Z,85.63
2019-04-29T11:04:04.665Z,85.11
2019-04-29T11:05:07.853Z,84.97
2019-04-29T11:06:05.636Z,83.54
2019-04-29T11:07:13.916Z,83.33
2019-04-29T11:08:05.586Z,84.56
2019-04-29T11:09:04.607Z,84.72
2019-04-29T11:10:04.573Z,81.56
2019-04-29T11:11:04.649Z,82.27
2019-04-29T11:12:04.558Z,82.78
2019-04-29T11:13:04.579Z,83.19
2019-04-29T11:14:04.537Z,82.37
2019-04-29T11:15:04.621Z,83.81
2019-04-29T11:16:04.600Z,84.52
2019-04-29T11:17:04.502Z,85.24
2019-04-29T11:18:04.521Z,85.30
2019-04-29T11:19:05.545Z,85.30
2019-04-29T11:20:04.562Z,83.29
2019-04-29T11:21:04.443Z,82.68
2019-04-29T11:22:04.523Z,84.93
2019-04-29T11:23:04.414Z,86.77
2019-04-29T11:24:04.434Z,86.57
2019-04-29T11:25:04.394Z,84.42
2019-04-29T11:26:04.475Z,84.52
2019-04-29T11:27:11.674Z,84.87
2019-04-29T11:28:05.357Z,85.17
2019-04-29T11:29:07.387Z,85.31
2019-04-29T11:30:04.938Z,85.52
2019-04-29T11:31:05.430Z,87.84
2019-04-29T11:32:04.328Z,86.81
2019-04-29T11:33:06.147Z,85.93
2019-04-29T11:34:05.537Z,85.11
2019-04-29T11:35:04.281Z,84.80
2019-04-29T11:36:05.871Z,87.26
2019-04-29T11:37:04.270Z,85.42
2019-04-29T11:38:04.251Z,85.72
2019-04-29T11:39:04.231Z,86.90
2019-04-29T11:40:04.313Z,86.18
2019-04-29T11:41:04.223Z,87.41
2019-04-29T11:42:04.303Z,87.34
2019-04-29T11:43:04.190Z,87.96
2019-04-29T11:44:04.174Z,89.09
2019-04-29T11:45:04.293Z,90.17
2019-04-29T11:46:04.175Z,90.17
2019-04-29T11:47:04.236Z,89.70
2019-04-29T11:48:04.147Z,89.70
2019-04-29T11:49:04.130Z,90.17
2019-04-29T11:50:07.540Z,90.07
2019-04-29T11:51:05.187Z,89.81
2019-04-29T11:52:09.868Z,87.65
2019-04-29T11:53:05.156Z,88.27
2019-04-29T11:54:04.058Z,88.37
2019-04-29T11:55:04.159Z,88.98
2019-04-29T11:56:04.051Z,88.57
2019-04-29T11:57:04.081Z,90.01
2019-04-29T11:58:04.031Z,89.29
2019-04-29T11:59:04.205Z,89.19
2019-04-29T12:00:04.003Z,87.34
2019-04-29T12:01:08.384Z,88.27
2019-04-29T12:02:03.973Z,87.96
2019-04-29T12:03:04.023Z,86.93
2019-04-29T12:04:03.971Z,88.27
2019-04-29T12:05:08.218Z,88.10
2019-04-29T12:06:03.925Z,89.23
2019-04-29T12:07:03.955Z,89.23
2019-04-29T12:08:11.414Z,90.16
2019-04-29T12:09:06.715Z,90.09
2019-04-29T12:10:06.494Z,90.36
2019-04-29T12:11:07.228Z,90.36
2019-04-29T12:12:07.747Z,89.37
2019-04-29T12:13:04.869Z,89.17
2019-04-29T12:14:04.649Z,90.09
2019-04-29T12:15:03.830Z,89.99
2019-04-29T12:16:03.869Z,90.91
2019-04-29T12:17:03.825Z,90.44
2019-04-29T12:18:03.851Z,90.55
2019-04-29T12:19:03.792Z,90.85
2019-04-29T12:20:04.872Z,91.57
2019-04-29T12:21:03.762Z,91.33
2019-04-29T12:22:04.828Z,91.42
2019-04-29T12:23:03.733Z,91.22
2019-04-29T12:24:03.764Z,92.25
2019-04-29T12:25:03.714Z,91.84
2019-04-29T12:26:05.057Z,91.88
2019-04-29T12:27:03.695Z,91.47
2019-04-29T12:28:18.168Z,91.37
2019-04-29T12:29:04.676Z,92.29
2019-04-29T12:30:04.747Z,91.27
2019-04-29T12:31:05.653Z,89.93
2019-04-29T12:32:04.677Z,91.16
2019-04-29T12:33:03.729Z,91.27
2019-04-29T12:34:03.629Z,91.37
2019-04-29T12:35:03.660Z,92.50
2019-04-29T12:36:05.187Z,92.04
2019-04-29T12:37:03.589Z,91.47
2019-04-29T12:38:05.885Z,91.27
2019-04-29T12:39:04.587Z,91.06
2019-04-29T12:40:04.631Z,92.60
2019-04-29T12:41:03.532Z,93.21
2019-04-29T12:42:04.462Z,93.73
2019-04-29T12:43:03.515Z,93.83
2019-04-29T12:44:03.519Z,94.55
2019-04-29T12:45:03.483Z,93.52
2019-04-29T12:46:04.534Z,92.74
2019-04-29T12:47:03.465Z,93.36
2019-04-29T12:48:06.393Z,93.67
2019-04-29T12:49:07.837Z,94.59
2019-04-29T12:50:04.436Z,94.70
2019-04-29T12:51:03.457Z,94.80
2019-04-29T12:52:03.409Z,95.01